Time;durP1;ratioP1;P1;durP2;ratioP2;P2;SDS_P1;SDS_P2;PMS_P1;PMS_P2;Temp;Humidity;BMP_temperature;BMP_pressure;BME280_temperature;BME280_humidity;BME280_pressure;Samples;Min_cycle;Max_cycle;Signal;HPM_P1;HPM_P2
2022/01/05 00:00:33;;;;;;;5.53;1.80;;;;;;;;;;5110175;27;20170;-76
2022/01/05 00:02:59;;;;;;;3.85;1.77;;;;;;;;;;5126989;27;20231;-76
2022/01/05 00:05:25;;;;;;;7.43;3.00;;;;;;;;;;5109837;28;20179;-75
2022/01/05 00:07:51;;;;;;;5.80;1.60;;;;;;;;;;5106134;28;20187;-75
2022/01/05 00:10:17;;;;;;;4.20;1.70;;;;;;;;;;5128836;27;20171;-76
2022/01/05 00:12:43;;;;;;;4.88;1.88;;;;;;;;;;5125277;27;20186;-75
2022/01/05 00:15:10;;;;;;;5.50;1.55;;;;;;;;;;5102310;28;20186;-76
2022/01/05 00:17:36;;;;;;;5.32;1.92;;;;;;;;;;5106424;27;20243;-75
2022/01/05 00:20:04;;;;;;;3.05;1.80;;;;;;;;;;5132377;27;20187;-76
2022/01/05 00:22:29;;;;;;;4.30;1.45;;;;;;;;;;5086518;28;20293;-76
2022/01/05 00:24:55;;;;;;;4.65;1.70;;;;;;;;;;5130651;27;20178;-75
2022/01/05 00:27:21;;;;;;;3.40;1.88;;;;;;;;;;5094744;28;20184;-75
2022/01/05 00:29:47;;;;;;;5.82;1.80;;;;;;;;;;5094429;28;20195;-75
2022/01/05 00:32:14;;;;;;;4.35;1.90;;;;;;;;;;5118620;28;20206;-75
2022/01/05 00:34:40;;;;;;;2.53;1.70;;;;;;;;;;5089311;28;20176;-76
2022/01/05 00:37:06;;;;;;;11.35;2.40;;;;;;;;;;5106811;28;20219;-76
2022/01/05 00:39:32;;;;;;;9.38;2.25;;;;;;;;;;5105632;28;20188;-75
2022/01/05 00:41:58;;;;;;;4.75;1.55;;;;;;;;;;5114244;27;20196;-76
2022/01/05 00:44:24;;;;;;;4.90;1.77;;;;;;;;;;5093151;28;20184;-76
2022/01/05 00:46:50;;;;;;;8.18;2.03;;;;;;;;;;5091290;28;20342;-76
2022/01/05 00:49:17;;;;;;;5.68;1.85;;;;;;;;;;5087910;28;20176;-76
2022/01/05 00:51:43;;;;;;;8.55;2.25;;;;;;;;;;5090863;28;20290;-76
2022/01/05 00:54:09;;;;;;;7.95;1.63;;;;;;;;;;5109306;28;20190;-75
2022/01/05 00:56:35;;;;;;;3.20;1.70;;;;;;;;;;5109317;28;20187;-76
2022/01/05 00:59:01;;;;;;;3.72;2.00;;;;;;;;;;5092681;28;20636;-75
2022/01/05 01:01:27;;;;;;;6.80;2.00;;;;;;;;;;5104658;28;20208;-76
2022/01/05 01:03:53;;;;;;;3.25;1.52;;;;;;;;;;5090250;28;20207;-75
2022/01/05 01:06:19;;;;;;;4.55;1.50;;;;;;;;;;5109536;28;20195;-75
2022/01/05 01:08:45;;;;;;;3.83;2.00;;;;;;;;;;5109038;28;20209;-76
2022/01/05 01:11:11;;;;;;;2.63;1.50;;;;;;;;;;5100414;28;20171;-76
2022/01/05 01:13:37;;;;;;;1.85;1.35;;;;;;;;;;5120034;28;20675;-76
2022/01/05 01:16:03;;;;;;;6.30;1.75;;;;;;;;;;5105425;28;20236;-76
2022/01/05 01:18:29;;;;;;;9.02;1.80;;;;;;;;;;5109257;28;20230;-75
2022/01/05 01:20:55;;;;;;;5.43;1.95;;;;;;;;;;5100196;28;20186;-76
2022/01/05 01:23:23;;;;;;;7.78;2.25;;;;;;;;;;5122117;27;20190;-75
2022/01/05 01:25:49;;;;;;;9.80;3.35;;;;;;;;;;5120343;28;20205;-76
2022/01/05 01:28:15;;;;;;;4.97;1.67;;;;;;;;;;5108151;28;20158;-76
2022/01/05 01:30:41;;;;;;;5.10;1.70;;;;;;;;;;5100039;28;20262;-76
2022/01/05 01:33:07;;;;;;;6.53;1.92;;;;;;;;;;5108572;28;20188;-76
2022/01/05 01:35:33;;;;;;;2.85;1.60;;;;;;;;;;5108639;28;20183;-76
2022/01/05 01:38:00;;;;;;;3.60;2.05;;;;;;;;;;5107913;28;20205;-77
2022/01/05 01:40:25;;;;;;;5.25;1.70;;;;;;;;;;5102317;28;20248;-76
2022/01/05 01:42:52;;;;;;;3.55;1.58;;;;;;;;;;5107641;28;20255;-75
2022/01/05 01:45:18;;;;;;;6.32;2.50;;;;;;;;;;5092794;28;20194;-76
2022/01/05 01:47:45;;;;;;;5.72;1.75;;;;;;;;;;5092465;28;20184;-75
2022/01/05 01:50:12;;;;;;;3.42;1.95;;;;;;;;;;5092066;28;20195;-76
2022/01/05 01:52:38;;;;;;;4.30;1.67;;;;;;;;;;5103482;28;20207;-76
2022/01/05 01:55:04;;;;;;;9.98;2.10;;;;;;;;;;5101214;28;20171;-76
2022/01/05 01:57:33;;;;;;;2.78;1.60;;;;;;;;;;5092366;28;20182;-75
2022/01/05 02:00:00;;;;;;;15.93;2.85;;;;;;;;;;5107637;28;20198;-76
2022/01/05 02:02:26;;;;;;;8.32;2.58;;;;;;;;;;5096403;28;20344;-76
2022/01/05 02:04:52;;;;;;;3.75;1.67;;;;;;;;;;5123019;28;20224;-76
2022/01/05 02:07:19;;;;;;;2.55;1.85;;;;;;;;;;5088157;28;20174;-76
2022/01/05 02:09:45;;;;;;;6.63;2.03;;;;;;;;;;5089674;28;20172;-75
2022/01/05 02:12:11;;;;;;;4.18;1.92;;;;;;;;;;5092670;28;20205;-76
2022/01/05 02:14:37;;;;;;;5.10;1.95;;;;;;;;;;5107880;28;20187;-76
2022/01/05 02:17:09;;;;;;;6.50;2.20;;;;;;;;;;5092477;28;20184;-76
2022/01/05 02:19:35;;;;;;;3.83;1.60;;;;;;;;;;5087054;28;20270;-76
2022/01/05 02:22:01;;;;;;;10.40;2.13;;;;;;;;;;5088365;28;20172;-75
2022/01/05 02:24:27;;;;;;;6.72;1.85;;;;;;;;;;5116141;28;20179;-76
2022/01/05 02:26:53;;;;;;;5.90;2.10;;;;;;;;;;5096501;28;20176;-74
2022/01/05 02:29:21;;;;;;;6.78;1.67;;;;;;;;;;5092073;28;20527;-75
2022/01/05 02:31:47;;;;;;;8.40;2.08;;;;;;;;;;5106349;28;20186;-76
2022/01/05 02:34:15;;;;;;;3.80;1.40;;;;;;;;;;5106280;28;20190;-75
2022/01/05 02:36:41;;;;;;;3.88;1.30;;;;;;;;;;5111761;28;20608;-75
2022/01/05 02:39:07;;;;;;;4.88;1.65;;;;;;;;;;5096859;28;20190;-77
2022/01/05 02:41:33;;;;;;;4.18;1.50;;;;;;;;;;5119092;27;20190;-75
2022/01/05 02:43:59;;;;;;;9.88;2.58;;;;;;;;;;5125780;27;20214;-75
2022/01/05 02:46:25;;;;;;;4.32;1.83;;;;;;;;;;5088905;28;20187;-75
2022/01/05 02:48:52;;;;;;;2.33;1.77;;;;;;;;;;5111260;28;20730;-75
2022/01/05 02:51:18;;;;;;;1.50;1.35;;;;;;;;;;5106552;28;20191;-75
2022/01/05 02:53:44;;;;;;;9.00;2.13;;;;;;;;;;5103211;27;20215;-75
2022/01/05 02:56:10;;;;;;;5.80;2.67;;;;;;;;;;5105880;28;20557;-75
2022/01/05 02:58:37;;;;;;;4.15;2.20;;;;;;;;;;5108074;28;20390;-75
2022/01/05 03:01:03;;;;;;;6.68;1.85;;;;;;;;;;5090591;28;20195;-77
2022/01/05 03:03:29;;;;;;;5.72;2.30;;;;;;;;;;5111285;28;20195;-75
2022/01/05 03:05:55;;;;;;;6.35;1.98;;;;;;;;;;5102971;28;20521;-77
2022/01/05 03:08:21;;;;;;;3.85;1.42;;;;;;;;;;5104478;28;20202;-75
2022/01/05 03:10:47;;;;;;;5.78;2.13;;;;;;;;;;5108256;28;20239;-76
2022/01/05 03:13:13;;;;;;;6.90;1.88;;;;;;;;;;5090356;28;20264;-75
2022/01/05 03:15:40;;;;;;;5.40;1.67;;;;;;;;;;5091529;28;20262;-76
2022/01/05 03:18:06;;;;;;;5.65;1.90;;;;;;;;;;5111203;28;20219;-75
2022/01/05 03:20:34;;;;;;;8.00;2.30;;;;;;;;;;5110855;28;20186;-75
2022/01/05 03:23:00;;;;;;;3.72;1.67;;;;;;;;;;5091739;28;20203;-76
2022/01/05 03:25:27;;;;;;;3.72;1.48;;;;;;;;;;5123060;28;20202;-75
2022/01/05 03:27:53;;;;;;;6.38;1.85;;;;;;;;;;5092164;28;20197;-75
2022/01/05 03:30:21;;;;;;;6.88;2.60;;;;;;;;;;5124318;27;20707;-75
2022/01/05 03:35:27;;;;;;;9.80;1.63;;;;;;;;;;5120524;27;20190;-75
2022/01/05 03:37:53;;;;;;;2.80;1.40;;;;;;;;;;5093667;28;20186;-75
2022/01/05 03:40:19;;;;;;;6.05;2.90;;;;;;;;;;5088371;28;20184;-76
2022/01/05 03:42:45;;;;;;;6.88;1.40;;;;;;;;;;5119133;28;20732;-76
2022/01/05 03:45:11;;;;;;;5.70;1.85;;;;;;;;;;5101411;27;20209;-75
2022/01/05 03:47:38;;;;;;;6.95;2.35;;;;;;;;;;5106964;28;20175;-75
2022/01/05 03:50:04;;;;;;;12.55;2.30;;;;;;;;;;5121268;28;20221;-76
2022/01/05 03:52:30;;;;;;;5.60;1.50;;;;;;;;;;5120439;28;20188;-75
2022/01/05 03:54:56;;;;;;;5.43;3.53;;;;;;;;;;5121496;28;20194;-75
2022/01/05 03:57:22;;;;;;;4.20;1.80;;;;;;;;;;5101203;28;20186;-75
2022/01/05 03:59:48;;;;;;;5.32;1.85;;;;;;;;;;5109934;28;20195;-75
2022/01/05 04:02:14;;;;;;;2.90;1.73;;;;;;;;;;5094313;28;20179;-75
2022/01/05 04:04:40;;;;;;;2.67;1.20;;;;;;;;;;5089607;28;20625;-76
2022/01/05 04:07:06;;;;;;;3.30;2.55;;;;;;;;;;5088929;28;20180;-76
2022/01/05 04:09:32;;;;;;;6.00;2.45;;;;;;;;;;5093656;28;20172;-75
2022/01/05 04:11:58;;;;;;;5.57;1.80;;;;;;;;;;5109905;28;20236;-76
2022/01/05 04:14:24;;;;;;;7.53;2.05;;;;;;;;;;5109562;28;20262;-75
2022/01/05 04:16:50;;;;;;;1.80;1.15;;;;;;;;;;5091712;28;20210;-76
2022/01/05 04:19:16;;;;;;;14.20;2.88;;;;;;;;;;5107051;28;20227;-75
2022/01/05 04:21:42;;;;;;;6.07;2.10;;;;;;;;;;5090394;28;20180;-76
2022/01/05 04:24:08;;;;;;;6.93;2.33;;;;;;;;;;5094241;28;20207;-76
2022/01/05 04:26:34;;;;;;;4.03;2.05;;;;;;;;;;5096476;28;20460;-75
2022/01/05 04:28:59;;;;;;;8.32;2.55;;;;;;;;;;5094006;28;20171;-75
2022/01/05 04:31:25;;;;;;;9.20;1.85;;;;;;;;;;5087187;28;20176;-75
2022/01/05 04:33:51;;;;;;;6.35;1.85;;;;;;;;;;5090341;28;20706;-76
2022/01/05 04:36:18;;;;;;;8.33;2.47;;;;;;;;;;5107159;28;20211;-76
2022/01/05 04:38:43;;;;;;;4.57;1.75;;;;;;;;;;5109847;28;20437;-75
2022/01/05 04:41:09;;;;;;;8.93;3.05;;;;;;;;;;5109203;28;20203;-76
2022/01/05 04:43:35;;;;;;;9.50;1.67;;;;;;;;;;5088988;28;20198;-75
2022/01/05 04:46:01;;;;;;;4.57;1.90;;;;;;;;;;5101377;28;20182;-76
2022/01/05 04:48:29;;;;;;;2.00;1.35;;;;;;;;;;5091257;28;20553;-75
2022/01/05 04:50:55;;;;;;;13.95;2.50;;;;;;;;;;5093074;28;20171;-76
2022/01/05 04:53:21;;;;;;;4.47;1.85;;;;;;;;;;5108950;28;20213;-75
2022/01/05 04:55:47;;;;;;;5.30;2.22;;;;;;;;;;5100860;28;20190;-77
2022/01/05 04:58:13;;;;;;;4.30;1.60;;;;;;;;;;5102463;28;20178;-75
2022/01/05 05:00:39;;;;;;;4.95;2.45;;;;;;;;;;5125181;27;20175;-75
2022/01/05 05:03:05;;;;;;;6.68;1.63;;;;;;;;;;5111488;28;20272;-76
2022/01/05 05:05:31;;;;;;;6.65;1.90;;;;;;;;;;5108946;28;20175;-75
2022/01/05 05:08:00;;;;;;;6.57;1.98;;;;;;;;;;5089637;28;20226;-75
2022/01/05 05:10:26;;;;;;;5.00;1.55;;;;;;;;;;5102190;28;20179;-75
2022/01/05 05:12:52;;;;;;;3.05;1.48;;;;;;;;;;5090173;28;20607;-75
2022/01/05 05:15:18;;;;;;;6.20;1.92;;;;;;;;;;5109054;28;20196;-75
2022/01/05 05:17:44;;;;;;;6.73;2.17;;;;;;;;;;5098387;28;20645;-76
2022/01/05 05:20:10;;;;;;;6.57;2.05;;;;;;;;;;5103562;28;20429;-75
2022/01/05 05:22:38;;;;;;;6.68;1.85;;;;;;;;;;5090020;28;20203;-75
2022/01/05 05:25:04;;;;;;;6.53;2.30;;;;;;;;;;5088618;28;20180;-75
2022/01/05 05:27:30;;;;;;;9.93;2.47;;;;;;;;;;5099463;28;20504;-76
2022/01/05 05:29:56;;;;;;;3.22;1.90;;;;;;;;;;5108999;28;20190;-76
2022/01/05 05:32:22;;;;;;;2.00;1.35;;;;;;;;;;5108080;28;20201;-75
2022/01/05 05:34:48;;;;;;;3.03;1.63;;;;;;;;;;5105777;28;20183;-75
2022/01/05 05:37:16;;;;;;;5.78;2.00;;;;;;;;;;5087922;28;20175;-76
2022/01/05 05:39:42;;;;;;;2.47;1.70;;;;;;;;;;5090315;28;20167;-76
2022/01/05 05:42:08;;;;;;;6.75;2.15;;;;;;;;;;5092842;28;20198;-75
2022/01/05 05:44:34;;;;;;;4.70;2.03;;;;;;;;;;5092476;28;20183;-75
2022/01/05 05:47:00;;;;;;;4.93;1.70;;;;;;;;;;5092579;28;20179;-75
2022/01/05 05:49:26;;;;;;;2.55;1.63;;;;;;;;;;5086229;28;20194;-76
2022/01/05 05:51:52;;;;;;;8.93;1.60;;;;;;;;;;5123370;28;20199;-75
2022/01/05 05:54:18;;;;;;;5.00;2.33;;;;;;;;;;5093559;28;20222;-75
2022/01/05 05:56:44;;;;;;;4.95;1.48;;;;;;;;;;5092787;28;20211;-75
2022/01/05 05:59:10;;;;;;;7.00;3.15;;;;;;;;;;5092684;28;20183;-75
2022/01/05 06:01:36;;;;;;;11.52;1.95;;;;;;;;;;5096167;27;20180;-75
2022/01/05 06:04:02;;;;;;;5.68;2.05;;;;;;;;;;5101269;28;20199;-75
2022/01/05 06:06:28;;;;;;;8.75;2.05;;;;;;;;;;5108831;28;20172;-76
2022/01/05 06:08:55;;;;;;;5.20;2.05;;;;;;;;;;5124358;27;20187;-75
2022/01/05 06:11:21;;;;;;;7.22;1.90;;;;;;;;;;5132660;27;20178;-75
2022/01/05 06:13:47;;;;;;;5.88;1.80;;;;;;;;;;5106926;28;20222;-75
2022/01/05 06:16:13;;;;;;;6.55;1.73;;;;;;;;;;5122458;27;20248;-75
2022/01/05 06:18:39;;;;;;;4.75;2.03;;;;;;;;;;5121826;27;20212;-75
2022/01/05 06:21:05;;;;;;;3.67;1.63;;;;;;;;;;5114829;27;20215;-77
2022/01/05 06:23:31;;;;;;;7.10;1.73;;;;;;;;;;5111305;28;20214;-75
2022/01/05 06:25:57;;;;;;;3.15;1.60;;;;;;;;;;5113627;28;20182;-75
2022/01/05 06:28:23;;;;;;;5.13;1.85;;;;;;;;;;5108854;28;20667;-75
2022/01/05 06:30:49;;;;;;;4.53;1.75;;;;;;;;;;5106552;28;20204;-75
2022/01/05 06:33:15;;;;;;;6.07;1.42;;;;;;;;;;5117846;27;20191;-76
2022/01/05 06:35:41;;;;;;;5.80;1.67;;;;;;;;;;5113626;27;20232;-76
2022/01/05 06:38:10;;;;;;;6.55;2.40;;;;;;;;;;5127076;27;20263;-75
2022/01/05 06:40:36;;;;;;;5.35;1.63;;;;;;;;;;5095479;28;20187;-75
2022/01/05 06:43:03;;;;;;;3.65;1.98;;;;;;;;;;5112917;28;20278;-75
2022/01/05 06:45:29;;;;;;;3.65;1.70;;;;;;;;;;5100434;28;20183;-75
2022/01/05 06:47:55;;;;;;;4.20;1.83;;;;;;;;;;5115526;27;20175;-75
2022/01/05 06:50:21;;;;;;;4.80;1.83;;;;;;;;;;5100419;28;20205;-75
2022/01/05 06:52:47;;;;;;;7.00;1.52;;;;;;;;;;5092325;28;20207;-76
2022/01/05 06:55:13;;;;;;;5.43;1.83;;;;;;;;;;5116903;27;20186;-76
2022/01/05 06:57:41;;;;;;;6.78;1.65;;;;;;;;;;5107884;28;20179;-75
2022/01/05 07:00:07;;;;;;;6.55;1.80;;;;;;;;;;5113555;28;20212;-74
2022/01/05 07:02:33;;;;;;;5.68;2.05;;;;;;;;;;5114920;28;20668;-76
2022/01/05 07:04:59;;;;;;;6.70;2.30;;;;;;;;;;5111408;27;20217;-76
2022/01/05 07:07:25;;;;;;;10.52;2.92;;;;;;;;;;5117124;28;20175;-74
2022/01/05 07:09:51;;;;;;;3.28;1.38;;;;;;;;;;5099317;27;20194;-74
2022/01/05 07:12:17;;;;;;;8.95;2.55;;;;;;;;;;5112914;27;20205;-76
2022/01/05 07:14:43;;;;;;;4.47;2.13;;;;;;;;;;5100733;28;20258;-75
2022/01/05 07:17:09;;;;;;;4.35;2.50;;;;;;;;;;5107311;28;20203;-75
2022/01/05 07:19:35;;;;;;;3.08;2.20;;;;;;;;;;5089942;28;20223;-75
2022/01/05 07:22:01;;;;;;;5.35;1.70;;;;;;;;;;5116245;28;20593;-75
2022/01/05 07:24:27;;;;;;;6.43;2.58;;;;;;;;;;5113650;28;20202;-74
2022/01/05 07:26:53;;;;;;;7.03;3.47;;;;;;;;;;5099796;28;20188;-76
2022/01/05 07:29:19;;;;;;;8.23;3.53;;;;;;;;;;5113767;27;20187;-74
2022/01/05 07:31:45;;;;;;;4.13;1.92;;;;;;;;;;5121316;28;20583;-75
2022/01/05 07:34:12;;;;;;;15.07;8.15;;;;;;;;;;5110251;28;20250;-74
2022/01/05 07:36:38;;;;;;;7.10;2.80;;;;;;;;;;5130861;27;20170;-75
2022/01/05 07:39:05;;;;;;;5.65;2.45;;;;;;;;;;5132208;27;20208;-75
2022/01/05 07:41:31;;;;;;;29.35;21.65;;;;;;;;;;5127859;27;20190;-75
2022/01/05 07:43:57;;;;;;;6.30;3.40;;;;;;;;;;5105355;28;20293;-76
2022/01/05 07:46:23;;;;;;;5.63;2.17;;;;;;;;;;5106078;28;20195;-75
2022/01/05 07:48:49;;;;;;;7.13;4.40;;;;;;;;;;5101547;27;20197;-75
2022/01/05 07:51:15;;;;;;;6.63;2.60;;;;;;;;;;5105648;27;20183;-76
2022/01/05 07:53:42;;;;;;;3.83;2.20;;;;;;;;;;5100536;28;20198;-75
2022/01/05 07:56:08;;;;;;;7.43;3.05;;;;;;;;;;5100116;28;20186;-75
2022/01/05 07:58:35;;;;;;;5.13;2.40;;;;;;;;;;5103220;28;20208;-76
2022/01/05 08:01:01;;;;;;;4.72;3.38;;;;;;;;;;5108589;28;20183;-76
2022/01/05 08:03:28;;;;;;;4.43;1.63;;;;;;;;;;5088108;28;20253;-75
2022/01/05 08:05:54;;;;;;;13.23;2.65;;;;;;;;;;5112948;28;20179;-77
2022/01/05 08:08:20;;;;;;;4.35;2.55;;;;;;;;;;5102653;28;20243;-77
2022/01/05 08:10:46;;;;;;;4.60;2.25;;;;;;;;;;5111647;28;20203;-76
2022/01/05 08:13:12;;;;;;;6.35;2.13;;;;;;;;;;5123947;27;20190;-76
2022/01/05 08:15:38;;;;;;;6.25;2.28;;;;;;;;;;5108166;28;20659;-76
2022/01/05 08:18:04;;;;;;;5.40;2.75;;;;;;;;;;5098568;28;20220;-76
2022/01/05 08:20:30;;;;;;;4.05;1.80;;;;;;;;;;5096444;28;20659;-77
2022/01/05 08:22:55;;;;;;;6.40;2.80;;;;;;;;;;5091172;28;20210;-77
2022/01/05 08:25:23;;;;;;;5.65;2.25;;;;;;;;;;5104785;28;20225;-77
2022/01/05 08:27:49;;;;;;;5.43;2.15;;;;;;;;;;5086934;28;20172;-77
2022/01/05 08:30:25;;;;;;;6.40;2.17;;;;;;;;;;5104930;28;20258;-78
2022/01/05 08:32:52;;;;;;;4.43;2.75;;;;;;;;;;5113633;28;20184;-76
2022/01/05 08:35:21;;;;;;;3.50;1.90;;;;;;;;;;5114003;28;20242;-77
2022/01/05 08:37:48;;;;;;;4.05;1.50;;;;;;;;;;5096523;27;20190;-77
2022/01/05 08:40:18;;;;;;;5.88;2.00;;;;;;;;;;5116785;28;20171;-76
2022/01/05 08:42:44;;;;;;;6.85;2.55;;;;;;;;;;5127552;27;20204;-76
2022/01/05 08:45:10;;;;;;;6.65;2.42;;;;;;;;;;5116228;27;20453;-76
2022/01/05 08:47:36;;;;;;;6.13;2.30;;;;;;;;;;5121087;27;20183;-77
2022/01/05 08:50:03;;;;;;;6.40;2.30;;;;;;;;;;5112907;27;20287;-75
2022/01/05 08:52:29;;;;;;;2.88;1.70;;;;;;;;;;5125039;27;20608;-76
2022/01/05 08:54:55;;;;;;;9.80;2.85;;;;;;;;;;5123411;27;20206;-76
2022/01/05 08:57:21;;;;;;;3.17;1.55;;;;;;;;;;5089295;28;20180;-76
2022/01/05 08:59:47;;;;;;;1.77;1.20;;;;;;;;;;5093362;28;20254;-76
2022/01/05 09:02:15;;;;;;;5.55;2.30;;;;;;;;;;5101112;27;20171;-76
2022/01/05 09:04:41;;;;;;;2.38;1.58;;;;;;;;;;5131916;27;20337;-76
2022/01/05 09:07:07;;;;;;;3.05;1.65;;;;;;;;;;5127848;27;20179;-77
2022/01/05 09:09:33;;;;;;;5.05;1.85;;;;;;;;;;5109785;27;20177;-76
2022/01/05 09:11:59;;;;;;;5.15;2.20;;;;;;;;;;5127028;27;20269;-76
2022/01/05 09:14:25;;;;;;;6.72;2.22;;;;;;;;;;5100226;28;20564;-76
2022/01/05 09:16:52;;;;;;;4.70;1.45;;;;;;;;;;5103398;28;20196;-76
2022/01/05 09:19:18;;;;;;;2.97;1.83;;;;;;;;;;5120140;28;20230;-76
2022/01/05 09:21:48;;;;;;;4.25;1.58;;;;;;;;;;5089885;28;20198;-77
2022/01/05 09:24:14;;;;;;;6.80;2.20;;;;;;;;;;5102795;28;20195;-77
2022/01/05 09:26:41;;;;;;;6.97;2.28;;;;;;;;;;5114128;28;20184;-78
2022/01/05 09:29:07;;;;;;;4.38;2.38;;;;;;;;;;5108901;28;20181;-75
2022/01/05 09:31:34;;;;;;;6.80;2.05;;;;;;;;;;5087326;28;20266;-77
2022/01/05 09:34:00;;;;;;;10.38;2.45;;;;;;;;;;5102307;28;20175;-75
2022/01/05 09:36:40;;;;;;;3.75;1.30;;;;;;;;;;5093382;28;20268;-76
2022/01/05 09:41:57;;;;;;;6.40;2.78;;;;;;;;;;5109303;28;20206;-75
2022/01/05 09:44:31;;;;;;;12.73;5.57;;;;;;;;;;5096698;28;20190;-76
2022/01/05 09:47:00;;;;;;;8.50;3.67;;;;;;;;;;5096171;28;20185;-75
2022/01/05 09:49:29;;;;;;;7.93;2.17;;;;;;;;;;5090378;28;20209;-76
2022/01/05 09:51:56;;;;;;;5.35;1.85;;;;;;;;;;5124144;28;20179;-76
2022/01/05 09:54:22;;;;;;;4.80;2.10;;;;;;;;;;5103678;28;20187;-76
2022/01/05 09:56:50;;;;;;;5.30;1.92;;;;;;;;;;5102036;28;20191;-76
2022/01/05 09:59:16;;;;;;;9.50;2.40;;;;;;;;;;5112325;28;20229;-76
2022/01/05 10:01:42;;;;;;;3.47;1.88;;;;;;;;;;5092019;28;20194;-76
2022/01/05 10:04:08;;;;;;;5.22;1.63;;;;;;;;;;5091348;28;20203;-76
2022/01/05 10:06:37;;;;;;;7.68;2.08;;;;;;;;;;5094176;28;20180;-76
2022/01/05 10:09:03;;;;;;;6.28;1.70;;;;;;;;;;5096495;28;20211;-77
2022/01/05 10:11:30;;;;;;;7.30;2.10;;;;;;;;;;5112350;28;20220;-76
2022/01/05 10:13:55;;;;;;;5.97;2.03;;;;;;;;;;5110827;28;20175;-75
2022/01/05 10:16:22;;;;;;;4.40;1.58;;;;;;;;;;5107857;28;20921;-77
2022/01/05 10:18:48;;;;;;;6.65;2.08;;;;;;;;;;5111847;28;20238;-76
2022/01/05 10:21:15;;;;;;;6.13;1.95;;;;;;;;;;5097032;28;20191;-76
2022/01/05 10:23:47;;;;;;;5.38;1.90;;;;;;;;;;5111206;28;20207;-76
2022/01/05 10:26:22;;;;;;;3.58;1.80;;;;;;;;;;5111661;28;20179;-76
2022/01/05 10:28:48;;;;;;;6.63;1.90;;;;;;;;;;5109993;28;20254;-76
2022/01/05 10:31:15;;;;;;;7.43;2.25;;;;;;;;;;5090942;28;20199;-75
2022/01/05 10:33:42;;;;;;;7.35;1.90;;;;;;;;;;5092780;28;20179;-76
2022/01/05 10:36:08;;;;;;;2.17;1.63;;;;;;;;;;5112041;28;20179;-76
2022/01/05 10:38:34;;;;;;;6.45;1.60;;;;;;;;;;5100321;28;20694;-76
2022/01/05 10:41:14;;;;;;;3.75;1.90;;;;;;;;;;5108396;28;20175;-76
2022/01/05 10:44:00;;;;;;;5.65;1.70;;;;;;;;;;5106597;28;20207;-77
2022/01/05 10:46:36;;;;;;;2.40;1.30;;;;;;;;;;5103681;28;20183;-76
2022/01/05 10:49:04;;;;;;;5.72;1.88;;;;;;;;;;5122459;28;20207;-77
2022/01/05 10:51:31;;;;;;;6.50;1.80;;;;;;;;;;5093636;28;20229;-76
2022/01/05 10:54:09;;;;;;;5.90;1.98;;;;;;;;;;5099686;28;20621;-76
2022/01/05 10:56:35;;;;;;;2.88;1.70;;;;;;;;;;5116653;27;20191;-76
2022/01/05 10:59:02;;;;;;;3.35;1.30;;;;;;;;;;5125746;27;20186;-76
2022/01/05 11:01:28;;;;;;;4.35;1.63;;;;;;;;;;5105292;28;20198;-77
2022/01/05 11:03:54;;;;;;;4.75;1.70;;;;;;;;;;5091778;28;20222;-77
2022/01/05 11:06:20;;;;;;;4.30;1.45;;;;;;;;;;5104556;28;20648;-76
2022/01/05 11:08:46;;;;;;;7.32;1.80;;;;;;;;;;5107208;27;20179;-76
2022/01/05 11:11:31;;;;;;;6.13;1.50;;;;;;;;;;5133042;27;20175;-77
2022/01/05 11:13:57;;;;;;;7.18;2.15;;;;;;;;;;5112400;28;20186;-77
2022/01/05 11:16:27;;;;;;;3.13;2.10;;;;;;;;;;5112441;27;20232;-77
2022/01/05 11:19:12;;;;;;;9.45;1.90;;;;;;;;;;5122185;28;20229;-77
2022/01/05 11:21:39;;;;;;;5.95;2.15;;;;;;;;;;5103012;28;20180;-75
2022/01/05 11:24:06;;;;;;;5.38;2.15;;;;;;;;;;5094452;28;20290;-76
2022/01/05 11:26:35;;;;;;;7.43;2.33;;;;;;;;;;5095198;28;20187;-75
2022/01/05 11:29:03;;;;;;;6.20;2.60;;;;;;;;;;5095095;28;20175;-76
2022/01/05 11:31:31;;;;;;;6.53;1.85;;;;;;;;;;5106319;28;20194;-76
2022/01/05 11:33:57;;;;;;;6.57;2.25;;;;;;;;;;5105576;27;20189;-76
2022/01/05 11:36:24;;;;;;;5.50;1.77;;;;;;;;;;5109641;27;20190;-77
2022/01/05 11:38:50;;;;;;;5.70;2.25;;;;;;;;;;5110526;28;20190;-79
2022/01/05 11:41:16;;;;;;;3.63;2.13;;;;;;;;;;5100598;28;20207;-77
2022/01/05 11:43:42;;;;;;;4.32;1.60;;;;;;;;;;5123859;28;20788;-76
2022/01/05 11:46:13;;;;;;;4.72;2.45;;;;;;;;;;5107908;27;20639;-78
2022/01/05 11:48:40;;;;;;;8.65;1.70;;;;;;;;;;5105933;28;20182;-76
2022/01/05 11:51:07;;;;;;;6.30;2.00;;;;;;;;;;5109227;27;20446;-76
2022/01/05 11:53:36;;;;;;;7.07;2.15;;;;;;;;;;5109141;28;20188;-76
2022/01/05 11:56:02;;;;;;;3.85;1.65;;;;;;;;;;5091137;28;20179;-77
2022/01/05 11:58:28;;;;;;;7.37;2.03;;;;;;;;;;5122377;28;20198;-76
2022/01/05 12:01:27;;;;;;;3.97;2.33;;;;;;;;;;5091244;28;20438;-77
2022/01/05 12:03:59;;;;;;;3.53;1.88;;;;;;;;;;5013509;28;20782;-78
2022/01/05 12:06:26;;;;;;;6.10;1.30;;;;;;;;;;5049926;28;20193;-77
2022/01/05 12:08:56;;;;;;;5.25;1.40;;;;;;;;;;5039649;28;20828;-78
2022/01/05 12:11:28;;;;;;;6.03;2.25;;;;;;;;;;5044384;28;20185;-77
2022/01/05 12:13:54;;;;;;;3.65;2.53;;;;;;;;;;5043090;28;20673;-77
2022/01/05 12:16:20;;;;;;;5.43;2.50;;;;;;;;;;5039072;28;20720;-77
2022/01/05 12:19:02;;;;;;;7.53;2.42;;;;;;;;;;5044726;28;20229;-77
2022/01/05 12:21:43;;;;;;;4.28;1.95;;;;;;;;;;5044164;28;20178;-77
2022/01/05 12:24:09;;;;;;;3.53;1.55;;;;;;;;;;5025829;28;20213;-79
2022/01/05 12:26:35;;;;;;;2.80;1.77;;;;;;;;;;5028665;28;20256;-76
2022/01/05 12:29:01;;;;;;;11.95;2.28;;;;;;;;;;5025855;28;20243;-78
2022/01/05 12:31:45;;;;;;;5.25;1.92;;;;;;;;;;5025650;28;20212;-77
2022/01/05 12:34:11;;;;;;;6.10;1.67;;;;;;;;;;5053569;28;20219;-78
2022/01/05 12:36:38;;;;;;;8.63;2.15;;;;;;;;;;5021476;28;20182;-78
2022/01/05 12:39:08;;;;;;;6.10;2.75;;;;;;;;;;5052045;28;20310;-79
2022/01/05 12:41:37;;;;;;;9.52;2.65;;;;;;;;;;5100151;28;20183;-77
2022/01/05 12:44:28;;;;;;;11.63;3.20;;;;;;;;;;5101365;27;20248;-79
2022/01/05 12:46:54;;;;;;;6.78;2.50;;;;;;;;;;5097860;28;20270;-78
2022/01/05 12:49:25;;;;;;;6.45;2.53;;;;;;;;;;5118967;27;20177;-79
2022/01/05 12:52:08;;;;;;;5.82;2.70;;;;;;;;;;5109416;28;20186;-77
2022/01/05 12:54:41;;;;;;;7.15;3.88;;;;;;;;;;5101547;28;20195;-79
2022/01/05 12:57:09;;;;;;;8.80;2.95;;;;;;;;;;5100840;28;20187;-77
2022/01/05 12:59:40;;;;;;;8.05;2.03;;;;;;;;;;5100972;28;20228;-80
2022/01/05 13:02:11;;;;;;;4.63;2.50;;;;;;;;;;5109107;28;20175;-77
2022/01/05 13:04:38;;;;;;;7.85;2.55;;;;;;;;;;5087786;28;20550;-78
2022/01/05 13:07:05;;;;;;;3.47;2.78;;;;;;;;;;5102393;28;20178;-78
2022/01/05 13:09:39;;;;;;;9.50;3.10;;;;;;;;;;5101656;28;20171;-77
2022/01/05 13:12:08;;;;;;;6.82;3.00;;;;;;;;;;5125840;27;20239;-77
2022/01/05 13:14:34;;;;;;;4.63;2.97;;;;;;;;;;5111717;28;20187;-78
2022/01/05 13:17:01;;;;;;;5.35;2.08;;;;;;;;;;5119524;28;20194;-77
2022/01/05 13:19:42;;;;;;;5.30;2.40;;;;;;;;;;5086286;28;20227;-76
2022/01/05 13:22:19;;;;;;;19.55;4.80;;;;;;;;;;5120344;28;20166;-77
2022/01/05 13:25:06;;;;;;;4.25;1.77;;;;;;;;;;5100185;28;20521;-77
2022/01/05 13:27:38;;;;;;;5.95;2.28;;;;;;;;;;5091637;28;20172;-78
2022/01/05 13:30:06;;;;;;;4.70;2.58;;;;;;;;;;5108932;28;20247;-77
2022/01/05 13:32:33;;;;;;;5.70;2.30;;;;;;;;;;5092708;28;20625;-77
2022/01/05 13:35:11;;;;;;;8.18;2.63;;;;;;;;;;5107914;28;20187;-78
2022/01/05 13:37:37;;;;;;;6.00;2.63;;;;;;;;;;5120367;28;20264;-79
2022/01/05 13:40:07;;;;;;;6.28;2.63;;;;;;;;;;5115089;28;20185;-78
2022/01/05 13:42:57;;;;;;;5.68;3.10;;;;;;;;;;5109171;28;20171;-79
2022/01/05 13:45:29;;;;;;;8.75;5.30;;;;;;;;;;5096649;28;20185;-78
2022/01/05 13:47:57;;;;;;;7.38;2.47;;;;;;;;;;5102560;28;20193;-76
2022/01/05 13:50:24;;;;;;;3.92;1.70;;;;;;;;;;5101932;28;20182;-78
2022/01/05 13:52:58;;;;;;;3.83;2.33;;;;;;;;;;5090143;28;20208;-78
2022/01/05 13:55:26;;;;;;;8.82;5.47;;;;;;;;;;5096469;28;20291;-78
2022/01/05 13:58:03;;;;;;;3.47;1.92;;;;;;;;;;5090017;28;20180;-77
2022/01/05 14:00:29;;;;;;;9.40;2.80;;;;;;;;;;5107315;28;20183;-77
2022/01/05 14:02:55;;;;;;;10.00;3.70;;;;;;;;;;5106554;28;20851;-78
2022/01/05 14:05:21;;;;;;;7.53;2.25;;;;;;;;;;5093507;28;20190;-77
2022/01/05 14:07:47;;;;;;;6.35;2.40;;;;;;;;;;5105848;28;20199;-77
2022/01/05 14:10:14;;;;;;;4.32;2.30;;;;;;;;;;5102548;28;20179;-77
2022/01/05 14:12:40;;;;;;;6.63;2.00;;;;;;;;;;5108019;28;20233;-77
2022/01/05 14:15:07;;;;;;;5.93;2.28;;;;;;;;;;5095493;28;20195;-78
2022/01/05 14:17:33;;;;;;;5.45;2.05;;;;;;;;;;5105715;28;20175;-77
2022/01/05 14:20:12;;;;;;;11.07;3.78;;;;;;;;;;5105009;28;20199;-76
2022/01/05 14:22:40;;;;;;;5.45;3.35;;;;;;;;;;5122194;28;20515;-79
2022/01/05 14:25:06;;;;;;;10.18;4.50;;;;;;;;;;5107487;28;20190;-78
2022/01/05 14:27:36;;;;;;;10.32;2.75;;;;;;;;;;5101354;28;20175;-77
2022/01/05 14:30:12;;;;;;;10.52;3.85;;;;;;;;;;5096701;28;20180;-78
2022/01/05 14:32:40;;;;;;;4.57;2.70;;;;;;;;;;5106729;27;20213;-78
2022/01/05 14:35:13;;;;;;;9.07;4.28;;;;;;;;;;5112517;28;20191;-79
2022/01/05 14:37:58;;;;;;;4.68;2.35;;;;;;;;;;5124147;27;20187;-77
2022/01/05 14:40:28;;;;;;;14.63;3.20;;;;;;;;;;5102991;28;20972;-78
2022/01/05 14:42:58;;;;;;;10.43;2.70;;;;;;;;;;5110735;27;20199;-78
2022/01/05 14:45:25;;;;;;;3.60;2.00;;;;;;;;;;5120180;27;20230;-78
2022/01/05 14:47:51;;;;;;;6.15;3.08;;;;;;;;;;5106195;27;20707;-77
2022/01/05 14:50:17;;;;;;;3.67;2.90;;;;;;;;;;5102082;28;20183;-78